createdAt,value
2019-05-02T00:01:11.357Z,1.10
2019-05-02T00:03:41.212Z,1.02
2019-05-02T00:06:09.320Z,1.10
2019-05-02T00:08:36.072Z,1.25
2019-05-02T00:11:02.892Z,1.07
2019-05-02T00:13:29.292Z,1.27
2019-05-02T00:15:56.485Z,1.00
2019-05-02T00:18:23.282Z,1.20
2019-05-02T00:20:49.835Z,1.07
2019-05-02T00:23:16.363Z,1.20
2019-05-02T00:25:47.193Z,1.20
2019-05-02T00:28:13.853Z,1.00
2019-05-02T00:30:40.491Z,0.90
2019-05-02T00:33:07.064Z,1.07
2019-05-02T00:35:35.395Z,1.30
2019-05-02T00:38:02.448Z,1.20
2019-05-02T00:40:29.332Z,1.12
2019-05-02T00:42:58.214Z,1.05
2019-05-02T00:45:25.959Z,1.17
2019-05-02T00:47:54.452Z,1.02
2019-05-02T00:50:22.934Z,1.25
2019-05-02T00:52:49.372Z,1.25
2019-05-02T00:55:15.683Z,0.98
2019-05-02T00:57:42.127Z,1.10
2019-05-02T01:00:08.544Z,1.12
2019-05-02T01:02:42.698Z,1.20
2019-05-02T01:05:09.919Z,1.30
2019-05-02T01:07:36.658Z,1.25
2019-05-02T01:10:06.047Z,1.20
2019-05-02T01:12:32.699Z,1.05
2019-05-02T01:15:03.390Z,1.17
2019-05-02T01:17:30.905Z,1.07
2019-05-02T01:19:55.899Z,1.45
2019-05-02T01:22:22.219Z,1.15
2019-05-02T01:24:48.628Z,1.20
2019-05-02T01:27:16.973Z,1.07
2019-05-02T01:29:45.675Z,1.22
2019-05-02T01:32:30.151Z,1.30
2019-05-02T01:35:08.295Z,1.07
2019-05-02T01:37:54.888Z,1.12
2019-05-02T01:40:21.797Z,1.20
2019-05-02T01:42:49.129Z,1.15
2019-05-02T01:45:16.379Z,1.10
2019-05-02T01:47:43.053Z,0.98
2019-05-02T01:50:09.708Z,1.15
2019-05-02T01:52:36.511Z,0.98
2019-05-02T01:55:05.571Z,1.22
2019-05-02T01:57:32.102Z,1.00
2019-05-02T01:59:58.503Z,1.00
2019-05-02T02:02:28.181Z,1.10
2019-05-02T02:04:56.835Z,1.15
2019-05-02T02:07:21.907Z,0.80
2019-05-02T02:09:48.619Z,1.02
2019-05-02T02:12:14.967Z,1.10
2019-05-02T02:14:41.721Z,1.27
2019-05-02T02:17:10.057Z,1.00
2019-05-02T02:19:43.981Z,1.02
2019-05-02T02:22:12.408Z,1.07
2019-05-02T02:24:40.762Z,1.17
2019-05-02T02:27:07.276Z,1.20
2019-05-02T02:29:33.972Z,1.02
2019-05-02T02:32:00.656Z,0.90
2019-05-02T02:34:29.663Z,1.00
2019-05-02T02:36:55.572Z,0.80
2019-05-02T02:39:22.354Z,0.93
2019-05-02T02:41:52.046Z,1.10
2019-05-02T02:44:18.753Z,0.80
2019-05-02T02:46:50.033Z,1.00
2019-05-02T02:49:21.308Z,1.17
2019-05-02T02:51:44.784Z,1.10
2019-05-02T02:54:11.436Z,1.10
2019-05-02T02:56:40.951Z,0.72
2019-05-02T02:59:08.832Z,0.88
2019-05-02T03:01:35.436Z,1.00
2019-05-02T03:04:09.522Z,2.10
2019-05-02T03:06:31.404Z,1.75
2019-05-02T03:08:57.910Z,1.82
2019-05-02T03:11:31.071Z,2.70
2019-05-02T03:14:19.669Z,2.20
2019-05-02T03:16:49.544Z,1.70
2019-05-02T03:19:21.045Z,2.05
2019-05-02T03:21:54.248Z,2.02
2019-05-02T03:24:21.794Z,1.70
2019-05-02T03:26:55.149Z,1.57
2019-05-02T03:29:39.143Z,1.62
2019-05-02T03:32:11.539Z,1.52
2019-05-02T03:34:23.296Z,1.60
2019-05-02T03:36:49.873Z,2.08
2019-05-02T03:39:17.484Z,1.92
2019-05-02T03:41:44.460Z,2.08
2019-05-02T03:44:12.434Z,4.03
2019-05-02T03:46:39.128Z,1.92
2019-05-02T03:49:09.312Z,2.08
2019-05-02T03:51:33.794Z,2.05
2019-05-02T03:54:07.361Z,1.80
2019-05-02T03:56:28.641Z,1.80
2019-05-02T03:58:56.242Z,1.50
2019-05-02T04:01:23.420Z,1.27
2019-05-02T04:03:50.017Z,1.30
2019-05-02T04:06:20.907Z,1.30
2019-05-02T04:08:45.076Z,1.27
2019-05-02T04:11:16.866Z,1.50
2019-05-02T04:13:43.625Z,1.32
2019-05-02T04:16:15.756Z,0.98
2019-05-02T04:18:40.513Z,1.17
2019-05-02T04:21:07.441Z,1.00
2019-05-02T04:23:36.180Z,1.10
2019-05-02T04:26:06.822Z,1.00
2019-05-02T04:28:30.928Z,1.27
2019-05-02T04:30:57.819Z,1.00
2019-05-02T04:33:29.033Z,0.82
2019-05-02T04:35:52.898Z,1.20
2019-05-02T04:38:24.101Z,1.02
2019-05-02T04:40:49.518Z,1.00
2019-05-02T04:43:18.406Z,1.50
2019-05-02T04:45:52.820Z,1.00
2019-05-02T04:48:12.752Z,1.10
2019-05-02T04:50:39.402Z,1.22
2019-05-02T04:53:08.657Z,1.10
2019-05-02T04:55:34.588Z,1.20
2019-05-02T04:58:01.744Z,1.17
2019-05-02T05:00:28.885Z,0.93
2019-05-02T05:02:57.909Z,0.98
2019-05-02T05:05:25.725Z,0.95
2019-05-02T05:07:52.075Z,1.17
2019-05-02T05:10:18.666Z,1.25
2019-05-02T05:12:45.423Z,1.10
2019-05-02T05:15:15.229Z,0.98
2019-05-02T05:17:40.916Z,1.00
2019-05-02T05:20:14.224Z,0.93
2019-05-02T05:22:36.500Z,0.90
2019-05-02T05:25:23.979Z,0.78
2019-05-02T05:27:52.782Z,0.80
2019-05-02T05:30:20.703Z,0.90
2019-05-02T05:32:47.917Z,0.88
2019-05-02T05:35:14.428Z,1.00
2019-05-02T05:37:43.352Z,0.80
2019-05-02T05:40:09.254Z,0.70
2019-05-02T05:42:37.800Z,0.90
2019-05-02T05:45:09.789Z,0.80
2019-05-02T05:47:34.039Z,0.78
2019-05-02T05:50:01.167Z,0.70
2019-05-02T05:52:33.030Z,0.80
2019-05-02T05:54:57.915Z,0.70
2019-05-02T05:57:24.692Z,0.70
2019-05-02T05:59:51.211Z,0.80
2019-05-02T06:02:18.478Z,0.60
2019-05-02T06:04:47.352Z,0.80
2019-05-02T06:07:13.343Z,0.60
2019-05-02T06:09:39.663Z,0.70
2019-05-02T06:12:05.971Z,0.78
2019-05-02T06:14:34.466Z,0.80
2019-05-02T06:17:01.114Z,0.68
2019-05-02T06:19:27.910Z,0.80
2019-05-02T06:21:54.445Z,0.90
2019-05-02T06:24:21.595Z,0.88
2019-05-02T06:26:49.930Z,0.75
2019-05-02T06:29:18.822Z,0.80
2019-05-02T06:31:44.743Z,0.80
2019-05-02T06:34:11.302Z,0.85
2019-05-02T06:36:38.135Z,0.82
2019-05-02T06:39:05.334Z,1.00
2019-05-02T06:41:32.258Z,0.78
2019-05-02T06:44:04.557Z,0.72
2019-05-02T06:46:31.166Z,0.98
2019-05-02T06:48:57.698Z,1.00
2019-05-02T06:51:24.612Z,1.02
2019-05-02T06:53:51.193Z,1.00
2019-05-02T06:56:17.847Z,0.82
2019-05-02T06:58:44.377Z,1.00
2019-05-02T07:01:11.023Z,0.80
2019-05-02T07:03:41.278Z,0.95
2019-05-02T07:06:07.664Z,1.05
2019-05-02T07:08:34.480Z,0.70
2019-05-02T07:11:03.123Z,0.98
2019-05-02T07:13:29.603Z,0.80
2019-05-02T07:16:10.375Z,0.90
2019-05-02T07:18:42.073Z,1.10
2019-05-02T07:21:12.089Z,0.70
2019-05-02T07:23:36.884Z,0.75
2019-05-02T07:26:03.701Z,0.85
2019-05-02T07:28:30.841Z,1.00
2019-05-02T07:30:57.897Z,0.70
2019-05-02T07:33:24.833Z,0.80
2019-05-02T07:35:55.326Z,0.85
2019-05-02T07:38:20.342Z,0.93
2019-05-02T07:40:48.298Z,0.78
2019-05-02T07:43:21.164Z,0.90
2019-05-02T07:45:45.329Z,0.78
2019-05-02T07:48:17.584Z,0.60
2019-05-02T07:50:41.138Z,0.93
2019-05-02T07:53:11.418Z,0.60
2019-05-02T07:55:40.871Z,0.80
2019-05-02T07:58:06.978Z,0.80
2019-05-02T08:00:37.123Z,0.88
2019-05-02T08:03:04.983Z,0.80
2019-05-02T08:05:30.619Z,0.78
2019-05-02T08:07:57.223Z,0.70
2019-05-02T08:10:24.102Z,0.80
2019-05-02T08:12:50.619Z,0.80
2019-05-02T08:15:17.163Z,0.70
2019-05-02T08:17:43.695Z,0.88
2019-05-02T08:20:13.743Z,0.85
2019-05-02T08:22:39.251Z,0.70
2019-05-02T08:25:10.524Z,0.65
2019-05-02T08:27:38.784Z,0.90
2019-05-02T08:30:08.968Z,0.50
2019-05-02T08:32:35.294Z,0.70
2019-05-02T08:35:05.088Z,0.90
2019-05-02T08:37:35.223Z,0.60
2019-05-02T08:40:05.440Z,0.55
2019-05-02T08:42:32.674Z,0.78
2019-05-02T08:45:01.127Z,0.57
2019-05-02T08:47:28.720Z,0.70
2019-05-02T08:49:54.764Z,0.65
2019-05-02T08:52:22.704Z,0.80
2019-05-02T08:54:49.658Z,0.50
2019-05-02T08:57:16.500Z,0.70
2019-05-02T08:59:43.335Z,0.62
2019-05-02T09:02:10.187Z,0.50
2019-05-02T09:04:36.750Z,0.70
2019-05-02T09:07:03.741Z,0.57
2019-05-02T09:09:30.715Z,0.78
2019-05-02T09:12:08.718Z,0.72
2019-05-02T09:14:26.067Z,0.62
2019-05-02T09:16:52.605Z,0.60
2019-05-02T09:19:21.598Z,0.50
2019-05-02T09:21:47.242Z,0.50
2019-05-02T09:24:20.996Z,0.50
2019-05-02T09:26:42.560Z,0.53
2019-05-02T09:29:09.371Z,0.50
2019-05-02T09:31:40.888Z,0.70
2019-05-02T09:34:04.882Z,0.90
2019-05-02T09:36:32.318Z,1.85
2019-05-02T09:38:59.423Z,2.87
2019-05-02T09:41:36.336Z,3.52
2019-05-02T09:44:03.361Z,2.77
2019-05-02T09:46:32.323Z,3.50
2019-05-02T09:49:02.831Z,3.70
2019-05-02T09:51:27.593Z,3.15
2019-05-02T09:53:57.097Z,3.20
2019-05-02T09:56:22.745Z,2.62
2019-05-02T09:58:49.524Z,2.52
2019-05-02T10:01:22.389Z,2.70
2019-05-02T10:03:51.623Z,2.52
2019-05-02T10:06:18.353Z,2.50
2019-05-02T10:08:46.704Z,2.40
2019-05-02T10:11:16.974Z,2.45
2019-05-02T10:13:42.437Z,1.98
2019-05-02T10:16:09.904Z,1.87
2019-05-02T10:18:36.515Z,2.15
2019-05-02T10:21:07.817Z,1.67
2019-05-02T10:23:33.966Z,1.77
2019-05-02T10:26:02.690Z,1.70
2019-05-02T10:28:28.877Z,1.52
2019-05-02T10:30:56.858Z,1.37
2019-05-02T10:33:27.934Z,1.30
2019-05-02T10:35:52.615Z,1.25
2019-05-02T10:38:19.655Z,1.10
2019-05-02T10:40:48.325Z,1.02
2019-05-02T10:43:14.735Z,1.25
2019-05-02T10:45:47.515Z,1.12
2019-05-02T10:48:24.780Z,1.07
2019-05-02T10:50:48.917Z,0.90
2019-05-02T10:53:15.767Z,1.05
2019-05-02T10:55:42.997Z,0.90
2019-05-02T10:58:09.891Z,0.85
2019-05-02T11:00:37.914Z,0.80
2019-05-02T11:03:24.375Z,0.90
2019-05-02T11:05:57.987Z,0.88
2019-05-02T11:08:24.554Z,0.80
2019-05-02T11:10:52.615Z,1.00
2019-05-02T11:13:23.893Z,1.00
2019-05-02T11:16:19.235Z,0.70
2019-05-02T11:18:56.946Z,0.90
2019-05-02T11:21:23.773Z,0.90
2019-05-02T11:23:52.445Z,2.15
2019-05-02T11:26:21.498Z,2.10
2019-05-02T11:28:46.982Z,2.15
2019-05-02T11:31:13.515Z,1.62
2019-05-02T11:33:41.798Z,2.00
2019-05-02T11:36:08.172Z,1.10
2019-05-02T11:38:35.025Z,1.32
2019-05-02T11:41:02.854Z,1.10
2019-05-02T11:43:29.639Z,1.15
2019-05-02T11:46:05.542Z,1.02
2019-05-02T11:48:24.360Z,0.75
2019-05-02T11:50:52.285Z,0.60
2019-05-02T11:53:29.475Z,0.60
2019-05-02T11:55:47.828Z,0.50
2019-05-02T11:58:14.365Z,0.80
2019-05-02T12:00:45.345Z,0.60
2019-05-02T12:03:32.820Z,0.60
2019-05-02T12:05:56.623Z,0.50
2019-05-02T12:08:24.472Z,0.75
2019-05-02T12:10:51.961Z,0.40
2019-05-02T12:13:19.075Z,0.57
2019-05-02T12:15:45.624Z,0.53
2019-05-02T12:18:12.220Z,0.50
2019-05-02T12:20:38.806Z,0.55
2019-05-02T12:23:05.243Z,0.40
2019-05-02T12:25:32.844Z,0.50
2019-05-02T12:27:59.419Z,0.40
2019-05-02T12:30:28.988Z,0.42
2019-05-02T12:32:55.085Z,0.47
2019-05-02T12:35:22.476Z,0.57
2019-05-02T12:37:52.404Z,0.40
2019-05-02T12:40:17.594Z,0.40
2019-05-02T12:42:44.260Z,0.50
2019-05-02T12:45:12.345Z,0.30
2019-05-02T12:47:39.524Z,0.40
2019-05-02T12:50:06.017Z,0.40
2019-05-02T12:52:32.584Z,0.30
2019-05-02T12:54:59.011Z,0.40
2019-05-02T12:57:25.653Z,0.40
2019-05-02T12:59:52.527Z,0.40
2019-05-02T13:02:37.741Z,0.70
2019-05-02T13:05:05.403Z,0.40
2019-05-02T13:07:32.042Z,0.40
2019-05-02T13:09:58.529Z,0.50
2019-05-02T13:12:26.979Z,0.53
2019-05-02T13:14:55.641Z,0.53
2019-05-02T13:17:22.662Z,0.60
2019-05-02T13:19:57.217Z,0.40
2019-05-02T13:22:34.511Z,0.40
2019-05-02T13:25:03.377Z,0.37
2019-05-02T13:27:32.268Z,0.55
2019-05-02T13:29:58.323Z,0.82
2019-05-02T13:32:32.427Z,0.70
2019-05-02T13:35:02.271Z,0.90
2019-05-02T13:37:29.201Z,0.60
2019-05-02T13:40:16.870Z,0.60
2019-05-02T13:42:42.397Z,0.60
2019-05-02T13:45:13.968Z,0.70
2019-05-02T13:47:42.528Z,0.80
2019-05-02T13:50:09.634Z,0.75
2019-05-02T13:52:36.494Z,0.80
2019-05-02T13:55:05.329Z,0.82
2019-05-02T13:57:34.983Z,0.70
2019-05-02T14:00:02.283Z,0.60
2019-05-02T14:02:38.991Z,0.80
2019-05-02T14:05:09.165Z,0.60
2019-05-02T14:07:35.902Z,0.60
2019-05-02T14:10:20.188Z,0.80
2019-05-02T14:12:54.263Z,0.70
2019-05-02T14:15:22.716Z,0.70
2019-05-02T14:17:49.266Z,0.50
2019-05-02T14:20:18.790Z,0.53
2019-05-02T14:22:45.489Z,0.50
2019-05-02T14:25:12.348Z,0.53
2019-05-02T14:27:39.145Z,0.90
2019-05-02T14:30:06.743Z,0.80
2019-05-02T14:32:33.223Z,1.40
2019-05-02T14:35:02.573Z,1.30
2019-05-02T14:37:29.627Z,1.25
2019-05-02T14:39:58.251Z,0.80
2019-05-02T14:42:26.277Z,1.00
2019-05-02T14:45:05.497Z,0.75
2019-05-02T14:47:22.387Z,1.00
2019-05-02T14:49:49.110Z,1.00
2019-05-02T14:52:15.643Z,0.70
2019-05-02T14:54:46.492Z,0.60
2019-05-02T14:57:17.008Z,0.90
2019-05-02T14:59:42.828Z,0.72
2019-05-02T15:02:13.068Z,0.72
2019-05-02T15:04:44.557Z,1.10
2019-05-02T15:07:07.700Z,0.98
2019-05-02T15:09:36.096Z,0.60
2019-05-02T15:12:03.444Z,0.80
2019-05-02T15:14:33.112Z,0.80
2019-05-02T15:17:02.302Z,0.70
2019-05-02T15:19:28.895Z,0.60
2019-05-02T15:21:56.159Z,0.75
2019-05-02T15:24:27.570Z,0.80
2019-05-02T15:26:52.493Z,0.70
2019-05-02T15:29:22.881Z,0.60
2019-05-02T15:32:07.492Z,0.60
2019-05-02T15:34:46.271Z,0.70
2019-05-02T15:37:07.290Z,0.90
2019-05-02T15:42:02.416Z,0.62
2019-05-02T15:44:29.125Z,0.60
2019-05-02T15:46:58.346Z,0.60
2019-05-02T15:49:24.368Z,0.60
2019-05-02T15:51:52.358Z,0.90
2019-05-02T15:54:20.897Z,0.78
2019-05-02T15:56:59.580Z,0.82
2019-05-02T15:59:37.574Z,0.65
2019-05-02T16:02:03.006Z,0.70
2019-05-02T16:04:32.070Z,0.60
2019-05-02T16:07:00.482Z,0.90
2019-05-02T16:09:27.015Z,0.62
2019-05-02T16:11:56.962Z,0.60
2019-05-02T16:14:22.615Z,0.70
2019-05-02T16:16:49.257Z,0.85
2019-05-02T16:19:27.116Z,0.50
2019-05-02T16:21:52.125Z,0.90
2019-05-02T16:24:18.966Z,0.62
2019-05-02T16:26:46.970Z,0.62
2019-05-02T16:29:19.502Z,0.70
2019-05-02T16:31:44.344Z,0.55
2019-05-02T16:34:12.582Z,0.60
2019-05-02T16:36:39.377Z,0.72
2019-05-02T16:39:10.074Z,0.53
2019-05-02T16:41:34.872Z,0.75
2019-05-02T16:44:01.543Z,0.70
2019-05-02T16:46:29.054Z,0.80
2019-05-02T16:48:55.887Z,0.60
2019-05-02T16:51:31.086Z,0.70
2019-05-02T16:53:51.002Z,0.70
2019-05-02T16:56:17.442Z,0.90
2019-05-02T16:58:47.027Z,0.57
2019-05-02T17:01:14.897Z,0.60
2019-05-02T17:03:42.388Z,0.60
2019-05-02T17:06:09.445Z,0.60
2019-05-02T17:08:58.424Z,0.70
2019-05-02T17:11:32.345Z,0.65
2019-05-02T17:13:57.490Z,0.85
2019-05-02T17:16:24.042Z,0.60
2019-05-02T17:18:54.999Z,0.70
2019-05-02T17:21:19.092Z,0.60
2019-05-02T17:23:47.461Z,0.88
2019-05-02T17:26:14.278Z,0.62
2019-05-02T17:28:46.985Z,0.70
2019-05-02T17:31:19.558Z,1.80
2019-05-02T17:33:41.700Z,0.80
2019-05-02T17:36:08.501Z,1.05
2019-05-02T17:38:35.369Z,1.40
2019-05-02T17:41:07.809Z,1.87
2019-05-02T17:43:32.898Z,1.92
2019-05-02T17:45:59.947Z,1.98
2019-05-02T17:48:26.597Z,2.00
2019-05-02T17:51:12.387Z,1.70
2019-05-02T17:53:42.744Z,1.20
2019-05-02T17:56:13.060Z,1.47
2019-05-02T17:58:36.601Z,1.32
2019-05-02T18:01:05.107Z,1.30
2019-05-02T18:03:35.097Z,1.37
2019-05-02T18:06:02.520Z,1.17
2019-05-02T18:08:29.095Z,1.50
2019-05-02T18:10:59.920Z,0.90
2019-05-02T18:13:24.064Z,1.25
2019-05-02T18:15:50.682Z,1.07
2019-05-02T18:18:17.489Z,1.32
2019-05-02T18:20:46.438Z,1.07
2019-05-02T18:23:12.627Z,1.25
2019-05-02T18:25:39.477Z,1.45
2019-05-02T18:28:06.394Z,1.82
2019-05-02T18:30:33.075Z,1.70
2019-05-02T18:33:03.486Z,1.00
2019-05-02T18:35:28.939Z,1.55
2019-05-02T18:37:56.079Z,1.00
2019-05-02T18:40:31.530Z,1.00
2019-05-02T18:43:03.546Z,1.20
2019-05-02T18:45:28.545Z,1.50
2019-05-02T18:48:01.057Z,1.30
2019-05-02T18:50:32.034Z,0.90
2019-05-02T18:52:59.196Z,1.10
2019-05-02T18:55:26.442Z,0.70
2019-05-02T18:57:56.996Z,1.17
2019-05-02T19:00:22.871Z,0.80
2019-05-02T19:02:49.652Z,0.70
2019-05-02T19:05:19.302Z,0.80
2019-05-02T19:07:47.356Z,0.80
2019-05-02T19:10:13.363Z,0.85
2019-05-02T19:12:41.907Z,0.78
2019-05-02T19:15:08.079Z,0.80
2019-05-02T19:17:38.430Z,0.93
2019-05-02T19:20:06.126Z,0.70
2019-05-02T19:22:34.047Z,0.90
2019-05-02T19:25:01.938Z,1.00
2019-05-02T19:27:47.007Z,1.00
2019-05-02T19:30:13.889Z,1.00
2019-05-02T19:32:41.714Z,0.82
2019-05-02T19:35:08.299Z,0.93
2019-05-02T19:37:44.020Z,1.12
2019-05-02T19:40:04.840Z,1.17
2019-05-02T19:42:31.303Z,1.40
2019-05-02T19:45:03.800Z,1.37
2019-05-02T19:47:26.131Z,1.22
2019-05-02T19:49:54.373Z,1.30
2019-05-02T19:52:22.165Z,1.30
2019-05-02T19:54:48.996Z,1.17
2019-05-02T19:57:17.062Z,1.02
2019-05-02T19:59:44.335Z,1.10
2019-05-02T20:02:11.943Z,1.05
2019-05-02T20:04:42.721Z,0.93
2019-05-02T20:07:06.735Z,0.82
2019-05-02T20:09:38.105Z,1.10
2019-05-02T20:12:06.010Z,1.00
2019-05-02T20:14:32.110Z,0.70
2019-05-02T20:16:58.851Z,1.10
2019-05-02T20:19:27.072Z,1.10
2019-05-02T20:21:57.080Z,0.90
2019-05-02T20:24:25.715Z,0.80
2019-05-02T20:26:56.018Z,0.72
2019-05-02T20:29:20.770Z,0.70
2019-05-02T20:31:47.707Z,0.90
2019-05-02T20:34:14.553Z,0.78
2019-05-02T20:36:42.579Z,0.90
2019-05-02T20:39:09.552Z,0.60
2019-05-02T20:41:36.037Z,0.70
2019-05-02T20:44:02.722Z,0.50
2019-05-02T20:46:30.067Z,0.47
2019-05-02T20:48:56.692Z,0.65
2019-05-02T20:51:23.968Z,0.47
2019-05-02T20:53:52.392Z,0.70
2019-05-02T20:56:18.799Z,0.62
2019-05-02T20:58:45.731Z,0.50
2019-05-02T21:01:12.618Z,0.50
2019-05-02T21:03:42.788Z,0.42
2019-05-02T21:06:20.077Z,0.50
2019-05-02T21:09:02.156Z,0.60
2019-05-02T21:11:28.792Z,0.40
2019-05-02T21:13:55.250Z,0.50
2019-05-02T21:16:22.123Z,0.50
2019-05-02T21:18:48.745Z,0.60
2019-05-02T21:21:15.469Z,0.47
2019-05-02T21:23:47.168Z,0.33
2019-05-02T21:26:10.427Z,0.30
2019-05-02T21:28:37.023Z,0.50
2019-05-02T21:31:03.396Z,0.50
2019-05-02T21:33:35.723Z,0.40
2019-05-02T21:36:02.558Z,0.82
2019-05-02T21:38:29.106Z,0.53
2019-05-02T21:40:55.415Z,0.33
2019-05-02T21:43:22.166Z,0.47
2019-05-02T21:45:48.791Z,0.40
2019-05-02T21:48:15.215Z,0.47
2019-05-02T21:50:43.460Z,0.42
2019-05-02T21:53:12.702Z,0.40
2019-05-02T21:55:42.909Z,0.30
2019-05-02T21:58:09.580Z,0.40
2019-05-02T22:00:54.987Z,0.50
2019-05-02T22:03:21.762Z,0.50
2019-05-02T22:05:48.427Z,0.50
2019-05-02T22:08:15.238Z,0.25
2019-05-02T22:10:42.675Z,0.42
2019-05-02T22:13:09.339Z,0.50
2019-05-02T22:15:35.931Z,0.60
2019-05-02T22:18:02.785Z,0.50
2019-05-02T22:20:29.534Z,0.60
2019-05-02T22:22:56.183Z,0.80
2019-05-02T22:25:22.620Z,0.40
2019-05-02T22:27:49.203Z,0.50
2019-05-02T22:30:16.050Z,0.40
2019-05-02T22:32:42.832Z,0.28
2019-05-02T22:35:11.943Z,0.60
2019-05-02T22:37:40.515Z,0.28
2019-05-02T22:40:08.849Z,0.40
2019-05-02T22:42:35.790Z,0.40
2019-05-02T22:45:05.103Z,0.35
2019-05-02T22:47:32.241Z,0.60
2019-05-02T22:49:59.387Z,0.50
2019-05-02T22:52:26.023Z,0.40
2019-05-02T22:54:52.958Z,0.50
2019-05-02T22:57:19.915Z,0.40
2019-05-02T22:59:46.575Z,0.40
2019-05-02T23:02:13.858Z,0.50
2019-05-02T23:04:41.786Z,0.50
2019-05-02T23:07:08.822Z,0.37
2019-05-02T23:09:35.358Z,0.50
2019-05-02T23:12:02.802Z,0.33
2019-05-02T23:14:29.478Z,0.37
2019-05-02T23:16:56.066Z,0.40
2019-05-02T23:19:22.943Z,0.40
2019-05-02T23:21:49.927Z,0.40
2019-05-02T23:24:18.273Z,0.37
2019-05-02T23:26:55.478Z,0.40
2019-05-02T23:29:22.609Z,0.60
2019-05-02T23:31:49.455Z,0.40
2019-05-02T23:34:16.381Z,0.35
2019-05-02T23:36:42.906Z,0.40
2019-05-02T23:39:09.932Z,0.20
2019-05-02T23:41:37.389Z,0.47
2019-05-02T23:44:04.311Z,0.47
2019-05-02T23:46:30.775Z,0.70
2019-05-02T23:48:57.343Z,0.50
2019-05-02T23:51:24.226Z,0.40
2019-05-02T23:53:52.720Z,0.40
2019-05-02T23:56:19.027Z,0.70
2019-05-02T23:58:46.037Z,0.40
